sensor_id;sensor_type;location;lat;lon;timestamp;temperature;humidity
13375;DHT22;6756;51.354;15.754;2023-04-24T00:08:11;8.70;1.00
13375;DHT22;6756;51.354;15.754;2023-04-24T00:12:32;8.60;99.90
13375;DHT22;6756;51.354;15.754;2023-04-24T00:16:57;8.50;1.00
13375;DHT22;6756;51.354;15.754;2023-04-24T00:20:58;8.30;1.00
13375;DHT22;6756;51.354;15.754;2023-04-24T00:25:18;8.20;99.90
13375;DHT22;6756;51.354;15.754;2023-04-24T00:29:38;8.20;1.00
13375;DHT22;6756;51.354;15.754;2023-04-24T00:34:19;8.10;99.90
13375;DHT22;6756;51.354;15.754;2023-04-24T00:38:31;8.00;99.90
13375;DHT22;6756;51.354;15.754;2023-04-24T00:42:53;8.00;1.00
13375;DHT22;6756;51.354;15.754;2023-04-24T00:47:26;7.80;1.00
13375;DHT22;6756;51.354;15.754;2023-04-24T00:51:42;7.80;1.00
13375;DHT22;6756;51.354;15.754;2023-04-24T00:55:56;7.70;1.00
13375;DHT22;6756;51.354;15.754;2023-04-24T01:00:24;7.70;1.00
13375;DHT22;6756;51.354;15.754;2023-04-24T01:09:52;7.60;1.00
13375;DHT22;6756;51.354;15.754;2023-04-24T01:19:06;7.50;8.90
13375;DHT22;6756;51.354;15.754;2023-04-24T01:23:18;7.40;1.00
13375;DHT22;6756;51.354;15.754;2023-04-24T01:27:27;7.30;99.90
13375;DHT22;6756;51.354;15.754;2023-04-24T01:31:31;7.40;99.90
13375;DHT22;6756;51.354;15.754;2023-04-24T01:35:51;7.30;99.90
13375;DHT22;6756;51.354;15.754;2023-04-24T01:39:55;7.30;99.90
13375;DHT22;6756;51.354;15.754;2023-04-24T01:44:03;7.20;99.90
13375;DHT22;6756;51.354;15.754;2023-04-24T01:48:07;7.30;99.90
13375;DHT22;6756;51.354;15.754;2023-04-24T01:52:30;7.40;99.90
13375;DHT22;6756;51.354;15.754;2023-04-24T01:56:55;7.40;99.90
13375;DHT22;6756;51.354;15.754;2023-04-24T02:11:08;7.00;99.90
13375;DHT22;6756;51.354;15.754;2023-04-24T02:20:17;7.00;99.90
13375;DHT22;6756;51.354;15.754;2023-04-24T02:24:29;7.00;99.90
13375;DHT22;6756;51.354;15.754;2023-04-24T02:33:54;6.90;99.90
13375;DHT22;6756;51.354;15.754;2023-04-24T02:38:29;6.90;99.90
13375;DHT22;6756;51.354;15.754;2023-04-24T02:42:43;6.90;99.90
13375;DHT22;6756;51.354;15.754;2023-04-24T02:47:18;6.90;99.90
13375;DHT22;6756;51.354;15.754;2023-04-24T02:51:29;7.00;99.90
13375;DHT22;6756;51.354;15.754;2023-04-24T03:00:16;7.00;99.90
13375;DHT22;6756;51.354;15.754;2023-04-24T03:04:20;7.00;99.90
13375;DHT22;6756;51.354;15.754;2023-04-24T03:08:42;7.00;99.90
13375;DHT22;6756;51.354;15.754;2023-04-24T03:17:41;6.80;99.90
13375;DHT22;6756;51.354;15.754;2023-04-24T03:22:00;6.80;99.90
13375;DHT22;6756;51.354;15.754;2023-04-24T03:26:26;6.60;99.90
13375;DHT22;6756;51.354;15.754;2023-04-24T03:30:35;6.50;99.90
13375;DHT22;6756;51.354;15.754;2023-04-24T03:34:39;6.40;99.90
13375;DHT22;6756;51.354;15.754;2023-04-24T03:39:19;6.30;99.90
13375;DHT22;6756;51.354;15.754;2023-04-24T03:43:43;6.20;99.90
13375;DHT22;6756;51.354;15.754;2023-04-24T03:47:59;6.20;99.90
13375;DHT22;6756;51.354;15.754;2023-04-24T03:52:16;6.20;99.90
13375;DHT22;6756;51.354;15.754;2023-04-24T03:56:20;6.20;99.90
13375;DHT22;6756;51.354;15.754;2023-04-24T04:00:22;6.30;99.90
13375;DHT22;6756;51.354;15.754;2023-04-24T04:04:38;6.50;99.90
13375;DHT22;6756;51.354;15.754;2023-04-24T04:08:54;6.90;99.90
13375;DHT22;6756;51.354;15.754;2023-04-24T04:13:01;7.10;99.90
13375;DHT22;6756;51.354;15.754;2023-04-24T04:17:11;7.20;99.90
13375;DHT22;6756;51.354;15.754;2023-04-24T04:21:18;7.20;99.90
13375;DHT22;6756;51.354;15.754;2023-04-24T04:25:25;7.20;99.90
13375;DHT22;6756;51.354;15.754;2023-04-24T04:29:41;7.20;99.90
13375;DHT22;6756;51.354;15.754;2023-04-24T04:33:54;7.60;99.90
13375;DHT22;6756;51.354;15.754;2023-04-24T04:37:57;8.40;99.90
13375;DHT22;6756;51.354;15.754;2023-04-24T04:42:17;9.20;99.90
13375;DHT22;6756;51.354;15.754;2023-04-24T04:46:22;9.80;99.90
13375;DHT22;6756;51.354;15.754;2023-04-24T04:51:04;10.20;99.90
13375;DHT22;6756;51.354;15.754;2023-04-24T04:59:41;11.10;99.90
13375;DHT22;6756;51.354;15.754;2023-04-24T05:03:59;11.50;99.90
13375;DHT22;6756;51.354;15.754;2023-04-24T05:08:03;11.90;99.90
13375;DHT22;6756;51.354;15.754;2023-04-24T05:12:20;12.40;1.00
13375;DHT22;6756;51.354;15.754;2023-04-24T05:16:29;12.80;99.90
13375;DHT22;6756;51.354;15.754;2023-04-24T05:20:31;13.20;99.90
13375;DHT22;6756;51.354;15.754;2023-04-24T05:24:44;13.40;99.90
13375;DHT22;6756;51.354;15.754;2023-04-24T05:28:59;13.60;84.10
13375;DHT22;6756;51.354;15.754;2023-04-24T05:33:01;13.80;45.50
13375;DHT22;6756;51.354;15.754;2023-04-24T05:37:13;14.10;27.80
13375;DHT22;6756;51.354;15.754;2023-04-24T05:41:23;14.40;14.80
13375;DHT22;6756;51.354;15.754;2023-04-24T05:45:47;14.80;1.00
13375;DHT22;6756;51.354;15.754;2023-04-24T05:50:09;15.20;1.00
13375;DHT22;6756;51.354;15.754;2023-04-24T05:58:47;15.60;1.00
13375;DHT22;6756;51.354;15.754;2023-04-24T06:03:20;15.70;1.00
13375;DHT22;6756;51.354;15.754;2023-04-24T06:07:44;15.90;1.00
13375;DHT22;6756;51.354;15.754;2023-04-24T06:21:15;16.00;1.00
13375;DHT22;6756;51.354;15.754;2023-04-24T06:25:32;16.20;1.00
13375;DHT22;6756;51.354;15.754;2023-04-24T06:29:59;16.30;1.00
13375;DHT22;6756;51.354;15.754;2023-04-24T06:34:19;16.10;1.00
13375;DHT22;6756;51.354;15.754;2023-04-24T06:38:43;16.10;1.00
13375;DHT22;6756;51.354;15.754;2023-04-24T07:33:29;15.90;1.00
13375;DHT22;6756;51.354;15.754;2023-04-24T07:37:34;16.10;1.00
13375;DHT22;6756;51.354;15.754;2023-04-24T07:42:17;16.20;1.00
13375;DHT22;6756;51.354;15.754;2023-04-24T07:57:00;16.80;1.00
13375;DHT22;6756;51.354;15.754;2023-04-24T08:11:46;18.10;1.00
13375;DHT22;6756;51.354;15.754;2023-04-24T08:17:17;18.70;1.00
13375;DHT22;6756;51.354;15.754;2023-04-24T08:21:31;18.90;1.00
13375;DHT22;6756;51.354;15.754;2023-04-24T08:30:46;18.60;1.00
13375;DHT22;6756;51.354;15.754;2023-04-24T08:36:05;18.70;1.00
13375;DHT22;6756;51.354;15.754;2023-04-24T08:40:33;18.90;1.00
13375;DHT22;6756;51.354;15.754;2023-04-24T08:44:56;19.10;1.00
13375;DHT22;6756;51.354;15.754;2023-04-24T08:49:36;19.20;1.00
13375;DHT22;6756;51.354;15.754;2023-04-24T08:54:04;18.50;1.00
13375;DHT22;6756;51.354;15.754;2023-04-24T08:58:32;18.60;1.00
13375;DHT22;6756;51.354;15.754;2023-04-24T09:03:36;18.60;1.00
13375;DHT22;6756;51.354;15.754;2023-04-24T09:08:08;18.30;1.00
13375;DHT22;6756;51.354;15.754;2023-04-24T09:12:36;18.30;1.00
13375;DHT22;6756;51.354;15.754;2023-04-24T09:17:03;18.30;1.00
13375;DHT22;6756;51.354;15.754;2023-04-24T09:30:41;17.10;1.00
13375;DHT22;6756;51.354;15.754;2023-04-24T09:35:17;16.80;1.00
13375;DHT22;6756;51.354;15.754;2023-04-24T09:40:22;16.80;1.00
13375;DHT22;6756;51.354;15.754;2023-04-24T09:49:54;16.40;1.00
13375;DHT22;6756;51.354;15.754;2023-04-24T09:54:52;16.60;1.00
13375;DHT22;6756;51.354;15.754;2023-04-24T09:59:35;16.20;1.00
13375;DHT22;6756;51.354;15.754;2023-04-24T10:04:11;16.50;1.00
13375;DHT22;6756;51.354;15.754;2023-04-24T10:08:20;17.10;1.00
13375;DHT22;6756;51.354;15.754;2023-04-24T10:12:46;17.30;1.00
13375;DHT22;6756;51.354;15.754;2023-04-24T10:17:02;17.30;1.00
13375;DHT22;6756;51.354;15.754;2023-04-24T10:21:09;16.90;1.00
13375;DHT22;6756;51.354;15.754;2023-04-24T10:25:39;16.90;1.00
13375;DHT22;6756;51.354;15.754;2023-04-24T10:29:49;17.10;1.00
13375;DHT22;6756;51.354;15.754;2023-04-24T10:34:25;17.30;1.00
13375;DHT22;6756;51.354;15.754;2023-04-24T10:38:41;17.00;1.00
13375;DHT22;6756;51.354;15.754;2023-04-24T10:43:09;16.80;1.00
13375;DHT22;6756;51.354;15.754;2023-04-24T10:47:14;16.60;1.00
13375;DHT22;6756;51.354;15.754;2023-04-24T10:56:27;16.80;1.00
13375;DHT22;6756;51.354;15.754;2023-04-24T11:00:55;16.50;1.00
13375;DHT22;6756;51.354;15.754;2023-04-24T11:05:06;16.40;1.00
13375;DHT22;6756;51.354;15.754;2023-04-24T11:09:59;16.20;1.00
13375;DHT22;6756;51.354;15.754;2023-04-24T11:14:19;16.60;1.00
13375;DHT22;6756;51.354;15.754;2023-04-24T11:18:39;16.80;1.00
13375;DHT22;6756;51.354;15.754;2023-04-24T11:23:06;17.00;1.00
13375;DHT22;6756;51.354;15.754;2023-04-24T11:27:21;17.10;1.00
13375;DHT22;6756;51.354;15.754;2023-04-24T11:31:40;17.00;1.00
13375;DHT22;6756;51.354;15.754;2023-04-24T11:35:51;16.80;1.00
13375;DHT22;6756;51.354;15.754;2023-04-24T11:40:12;16.70;1.00
13375;DHT22;6756;51.354;15.754;2023-04-24T11:45:11;16.50;1.00
13375;DHT22;6756;51.354;15.754;2023-04-24T11:49:36;16.30;1.00
13375;DHT22;6756;51.354;15.754;2023-04-24T11:53:47;16.20;1.00
13375;DHT22;6756;51.354;15.754;2023-04-24T11:58:09;16.20;1.00
13375;DHT22;6756;51.354;15.754;2023-04-24T12:02:34;16.30;1.00
13375;DHT22;6756;51.354;15.754;2023-04-24T12:06:38;16.40;1.00
13375;DHT22;6756;51.354;15.754;2023-04-24T12:11:04;16.50;1.00
13375;DHT22;6756;51.354;15.754;2023-04-24T12:15:54;16.40;1.00
13375;DHT22;6756;51.354;15.754;2023-04-24T12:20:33;16.30;1.00
13375;DHT22;6756;51.354;15.754;2023-04-24T12:25:04;16.10;1.00
13375;DHT22;6756;51.354;15.754;2023-04-24T12:29:55;16.00;1.00
13375;DHT22;6756;51.354;15.754;2023-04-24T12:39:20;16.20;1.00
13375;DHT22;6756;51.354;15.754;2023-04-24T12:55:16;17.00;1.00
13375;DHT22;6756;51.354;15.754;2023-04-24T12:59:57;17.20;1.00
13375;DHT22;6756;51.354;15.754;2023-04-24T13:04:04;17.40;1.00
13375;DHT22;6756;51.354;15.754;2023-04-24T13:08:14;17.50;1.00
13375;DHT22;6756;51.354;15.754;2023-04-24T13:21:08;17.20;1.00
13375;DHT22;6756;51.354;15.754;2023-04-24T13:30:42;15.80;1.00
13375;DHT22;6756;51.354;15.754;2023-04-24T13:34:52;14.80;1.00
13375;DHT22;6756;51.354;15.754;2023-04-24T13:38:56;14.00;7.50
13375;DHT22;6756;51.354;15.754;2023-04-24T13:43:00;13.50;98.20
13375;DHT22;6756;51.354;15.754;2023-04-24T13:47:01;13.30;99.90
13375;DHT22;6756;51.354;15.754;2023-04-24T13:51:24;13.20;99.90
13375;DHT22;6756;51.354;15.754;2023-04-24T13:55:31;13.20;99.90
13375;DHT22;6756;51.354;15.754;2023-04-24T13:59:44;13.30;99.90
13375;DHT22;6756;51.354;15.754;2023-04-24T14:03:52;13.30;99.90
13375;DHT22;6756;51.354;15.754;2023-04-24T14:08:08;13.50;99.90
13375;DHT22;6756;51.354;15.754;2023-04-24T14:12:40;13.80;99.90
13375;DHT22;6756;51.354;15.754;2023-04-24T14:17:00;14.20;99.90
13375;DHT22;6756;51.354;15.754;2023-04-24T14:21:09;14.60;91.30
13375;DHT22;6756;51.354;15.754;2023-04-24T14:25:24;14.80;58.20
13375;DHT22;6756;51.354;15.754;2023-04-24T14:29:39;15.00;28.60
13375;DHT22;6756;51.354;15.754;2023-04-24T14:33:53;15.10;17.00
13375;DHT22;6756;51.354;15.754;2023-04-24T14:38:17;15.20;9.40
13375;DHT22;6756;51.354;15.754;2023-04-24T14:47:15;15.30;17.30
13375;DHT22;6756;51.354;15.754;2023-04-24T14:51:31;15.40;19.50
13375;DHT22;6756;51.354;15.754;2023-04-24T14:56:21;15.50;12.10
13375;DHT22;6756;51.354;15.754;2023-04-24T15:10:11;15.80;15.20
13375;DHT22;6756;51.354;15.754;2023-04-24T15:14:31;16.10;1.00
13375;DHT22;6756;51.354;15.754;2023-04-24T15:18:42;16.30;1.00
13375;DHT22;6756;51.354;15.754;2023-04-24T15:28:16;16.50;1.00
13375;DHT22;6756;51.354;15.754;2023-04-24T15:33:01;16.70;1.00
13375;DHT22;6756;51.354;15.754;2023-04-24T15:37:23;16.90;1.00
13375;DHT22;6756;51.354;15.754;2023-04-24T15:41:35;16.80;1.00
13375;DHT22;6756;51.354;15.754;2023-04-24T15:46:04;16.70;1.00
13375;DHT22;6756;51.354;15.754;2023-04-24T15:50:10;16.60;1.00
13375;DHT22;6756;51.354;15.754;2023-04-24T15:55:03;16.30;1.00
13375;DHT22;6756;51.354;15.754;2023-04-24T15:59:21;15.90;1.00
13375;DHT22;6756;51.354;15.754;2023-04-24T16:08:22;15.10;46.40
13375;DHT22;6756;51.354;15.754;2023-04-24T16:12:23;14.70;99.90
13375;DHT22;6756;51.354;15.754;2023-04-24T16:16:53;14.50;99.90
13375;DHT22;6756;51.354;15.754;2023-04-24T16:21:04;14.50;99.90
13375;DHT22;6756;51.354;15.754;2023-04-24T16:30:09;14.50;99.90
13375;DHT22;6756;51.354;15.754;2023-04-24T16:34:25;14.40;99.90
13375;DHT22;6756;51.354;15.754;2023-04-24T16:39:26;13.80;1.00
13375;DHT22;6756;51.354;15.754;2023-04-24T16:43:55;13.70;1.00
13375;DHT22;6756;51.354;15.754;2023-04-24T16:48:11;13.80;1.00
13375;DHT22;6756;51.354;15.754;2023-04-24T16:52:12;13.90;1.00
13375;DHT22;6756;51.354;15.754;2023-04-24T16:56:43;13.90;99.90
13375;DHT22;6756;51.354;15.754;2023-04-24T17:01:13;14.00;99.90
13375;DHT22;6756;51.354;15.754;2023-04-24T17:05:27;14.00;99.90
13375;DHT22;6756;51.354;15.754;2023-04-24T17:09:39;13.90;99.90
13375;DHT22;6756;51.354;15.754;2023-04-24T17:13:46;13.80;99.90
13375;DHT22;6756;51.354;15.754;2023-04-24T17:18:11;13.70;99.90
13375;DHT22;6756;51.354;15.754;2023-04-24T17:22:15;13.60;99.90
13375;DHT22;6756;51.354;15.754;2023-04-24T17:26:34;13.50;99.90
13375;DHT22;6756;51.354;15.754;2023-04-24T17:31:06;13.30;99.90
13375;DHT22;6756;51.354;15.754;2023-04-24T17:35:13;13.10;99.90
13375;DHT22;6756;51.354;15.754;2023-04-24T17:39:20;12.90;99.90
13375;DHT22;6756;51.354;15.754;2023-04-24T17:43:40;12.80;99.90
13375;DHT22;6756;51.354;15.754;2023-04-24T17:47:45;12.70;99.90
13375;DHT22;6756;51.354;15.754;2023-04-24T17:57:19;12.50;99.90
13375;DHT22;6756;51.354;15.754;2023-04-24T18:01:20;12.60;99.90
13375;DHT22;6756;51.354;15.754;2023-04-24T18:05:30;12.50;99.90
13375;DHT22;6756;51.354;15.754;2023-04-24T18:09:40;12.50;99.90
13375;DHT22;6756;51.354;15.754;2023-04-24T18:13:46;12.40;99.90
13375;DHT22;6756;51.354;15.754;2023-04-24T18:18:16;12.30;99.90
13375;DHT22;6756;51.354;15.754;2023-04-24T18:22:25;12.20;99.90
13375;DHT22;6756;51.354;15.754;2023-04-24T18:26:29;11.90;99.90
13375;DHT22;6756;51.354;15.754;2023-04-24T18:30:46;11.70;99.90
13375;DHT22;6756;51.354;15.754;2023-04-24T18:34:58;11.50;99.90
13375;DHT22;6756;51.354;15.754;2023-04-24T18:39:00;11.30;99.90
13375;DHT22;6756;51.354;15.754;2023-04-24T18:43:10;11.20;99.90
13375;DHT22;6756;51.354;15.754;2023-04-24T18:47:34;11.10;99.90
13375;DHT22;6756;51.354;15.754;2023-04-24T18:56:43;11.10;99.90
13375;DHT22;6756;51.354;15.754;2023-04-24T19:00:55;11.00;99.90
13375;DHT22;6756;51.354;15.754;2023-04-24T19:05:38;10.90;99.90
13375;DHT22;6756;51.354;15.754;2023-04-24T19:10:27;10.80;99.90
13375;DHT22;6756;51.354;15.754;2023-04-24T19:14:55;10.80;99.90
13375;DHT22;6756;51.354;15.754;2023-04-24T19:19:57;10.70;99.90
13375;DHT22;6756;51.354;15.754;2023-04-24T19:24:56;10.70;99.90
13375;DHT22;6756;51.354;15.754;2023-04-24T19:29:01;10.70;99.90
13375;DHT22;6756;51.354;15.754;2023-04-24T19:33:32;10.70;78.60
13375;DHT22;6756;51.354;15.754;2023-04-24T19:37:39;10.70;11.20
13375;DHT22;6756;51.354;15.754;2023-04-24T19:42:01;10.80;1.00
13375;DHT22;6756;51.354;15.754;2023-04-24T19:46:04;10.80;1.00
13375;DHT22;6756;51.354;15.754;2023-04-24T19:50:20;10.80;1.00
13375;DHT22;6756;51.354;15.754;2023-04-24T19:54:40;10.80;1.00
13375;DHT22;6756;51.354;15.754;2023-04-24T19:59:07;11.00;1.00
13375;DHT22;6756;51.354;15.754;2023-04-24T20:03:22;10.90;1.00
13375;DHT22;6756;51.354;15.754;2023-04-24T20:07:38;10.90;1.00
13375;DHT22;6756;51.354;15.754;2023-04-24T20:11:55;10.80;1.00
13375;DHT22;6756;51.354;15.754;2023-04-24T20:16:05;10.70;1.00
13375;DHT22;6756;51.354;15.754;2023-04-24T20:20:07;10.60;1.00
13375;DHT22;6756;51.354;15.754;2023-04-24T20:24:16;10.50;1.00
13375;DHT22;6756;51.354;15.754;2023-04-24T20:28:43;10.50;1.00
13375;DHT22;6756;51.354;15.754;2023-04-24T20:33:12;10.40;1.00
13375;DHT22;6756;51.354;15.754;2023-04-24T20:37:35;10.40;1.00
13375;DHT22;6756;51.354;15.754;2023-04-24T20:51:37;10.30;1.00
13375;DHT22;6756;51.354;15.754;2023-04-24T20:55:51;10.20;1.00
13375;DHT22;6756;51.354;15.754;2023-04-24T21:00:18;10.20;1.00
13375;DHT22;6756;51.354;15.754;2023-04-24T21:04:29;10.10;1.00
13375;DHT22;6756;51.354;15.754;2023-04-24T21:08:56;10.00;1.00
13375;DHT22;6756;51.354;15.754;2023-04-24T21:13:02;10.10;1.00
13375;DHT22;6756;51.354;15.754;2023-04-24T21:17:32;10.00;1.00
13375;DHT22;6756;51.354;15.754;2023-04-24T21:21:39;10.00;1.00
13375;DHT22;6756;51.354;15.754;2023-04-24T21:25:44;9.90;1.00
13375;DHT22;6756;51.354;15.754;2023-04-24T21:34:42;9.70;1.00
13375;DHT22;6756;51.354;15.754;2023-04-24T21:39:07;9.60;1.00
13375;DHT22;6756;51.354;15.754;2023-04-24T21:43:23;9.50;1.00
13375;DHT22;6756;51.354;15.754;2023-04-24T21:47:27;9.50;1.00
13375;DHT22;6756;51.354;15.754;2023-04-24T21:51:40;9.40;1.00
13375;DHT22;6756;51.354;15.754;2023-04-24T21:56:10;9.40;1.00
13375;DHT22;6756;51.354;15.754;2023-04-24T22:00:37;9.40;1.00
13375;DHT22;6756;51.354;15.754;2023-04-24T22:09:44;9.30;1.00
13375;DHT22;6756;51.354;15.754;2023-04-24T22:13:45;9.20;1.00
13375;DHT22;6756;51.354;15.754;2023-04-24T22:17:52;9.10;1.00
13375;DHT22;6756;51.354;15.754;2023-04-24T22:21:56;9.00;1.00
13375;DHT22;6756;51.354;15.754;2023-04-24T22:26:11;8.90;1.00
13375;DHT22;6756;51.354;15.754;2023-04-24T22:30:23;8.90;1.00
13375;DHT22;6756;51.354;15.754;2023-04-24T22:35:06;8.80;1.00
13375;DHT22;6756;51.354;15.754;2023-04-24T22:39:13;8.80;1.00
13375;DHT22;6756;51.354;15.754;2023-04-24T22:43:29;8.70;1.00
13375;DHT22;6756;51.354;15.754;2023-04-24T22:47:41;8.70;1.00
13375;DHT22;6756;51.354;15.754;2023-04-24T22:51:52;8.70;1.00
13375;DHT22;6756;51.354;15.754;2023-04-24T22:56:16;8.70;1.00
13375;DHT22;6756;51.354;15.754;2023-04-24T23:04:57;8.50;1.00
13375;DHT22;6756;51.354;15.754;2023-04-24T23:09:17;8.40;1.00
13375;DHT22;6756;51.354;15.754;2023-04-24T23:13:31;8.30;1.00
13375;DHT22;6756;51.354;15.754;2023-04-24T23:17:38;8.30;1.00
13375;DHT22;6756;51.354;15.754;2023-04-24T23:21:59;8.20;1.00
13375;DHT22;6756;51.354;15.754;2023-04-24T23:26:06;8.20;1.00
13375;DHT22;6756;51.354;15.754;2023-04-24T23:30:22;8.10;1.00
13375;DHT22;6756;51.354;15.754;2023-04-24T23:45:00;7.90;1.00
13375;DHT22;6756;51.354;15.754;2023-04-24T23:49:02;7.80;1.00
13375;DHT22;6756;51.354;15.754;2023-04-24T23:53:15;7.70;1.00
13375;DHT22;6756;51.354;15.754;2023-04-24T23:57:41;7.60;1.00
